Monterey, Indiana
Current Conditions -  °F | °C
As of 8:35 AM on Thursday 29 Jan 2015 (Local Time) from KOXI Reporting Station
Overcast Overcast  
Wind Chill: 29°   Ceiling: 3100
Heat Index: 35°   Visibility: 10mi
Dew Point: 20°   Wind: 7mph
Humidity: 55%   Direction: 260°W
Pressure: 29.72"   Gusts: NA
Location:  41.16°N, 86.48°W
Report Text: KOXI 291435Z AUTO 26006KT 10SM SCT024 BKN031 OVC060 02/M06 A2972 RMK AO1 T00181064
Loading
Personal Weather Stations






























Interactive Weather Map New forecast layout! Learn more

10-Day Weather Forecast

Advertisements
Track Severe Weather on mobile